• Join FlightAware (Why Join?)
  • Login
  • US Flag 
04:09AM EDT


 

Airport Tracker/Info


-or-


 

Live Flight TrackerFlight Track Log ✈ EGF3401 ✈ 19-Apr-2013 ✈ KTYS - KDFW

Flight Track Log - Related Links

Times and Time Zones

All times are in EDT time to prevent confusion due to time zone crossing. See the EGF3401 flight status page for this flight to view local times or setup timezone preferences in your user account.

Time Position Orientation Groundspeed Altitude Reporting Facility
EDT Latitude Longitude Course Direction KTS MPH feet Rate Location/Type
07:52PM 35.7850 -84.0286 264° West 164 189 2,800  Level Atlanta Center
07:53PM 35.7808 -84.0925 265° West 171 197 5,200 2,400 Climbing Atlanta Center
07:54PM 35.7833 -84.1947 270° West  Level FlightAware Approximate
07:54PM 35.7744 -84.1719 264° West 208 239 7,600  Level Atlanta Center
07:55PM 35.7801 -84.3012 257° West  Level FlightAware Approximate
07:55PM 35.7681 -84.2536 265° West 232 267 10,300  Level Atlanta Center
07:56PM 35.7611 -84.4055 257° West  Level FlightAware Approximate
07:56PM 35.7597 -84.3433 263° West 255 293 12,600  Level Atlanta Center
07:57PM 35.7464 -84.5107 264° West  Level FlightAware Approximate
07:57PM 35.7511 -84.4378 264° West 271 312 14,700  Level Atlanta Center
07:58PM 35.7375 -84.6170 264° West  Level FlightAware Approximate
07:58PM 35.7422 -84.5350 264° West 281 323 16,000  Level Atlanta Center
07:59PM 35.7314 -84.6372 263° West 293 337 17,500 1,380 Climbing Atlanta Center
08:00PM 35.7247 -84.7422 266° West 300 345 18,800 1,380 Climbing Atlanta Center
08:01PM 35.7156 -84.8469 264° West 311 358 20,300 1,380 Climbing Atlanta Center
08:03PM 35.6967 -85.0453 263° West 305 351 23,100 1,320 Climbing Memphis Center
08:04PM 35.6864 -85.1481 263° West 305 351 24,400 1,140 Climbing Memphis Center
08:05PM 35.6783 -85.2533 265° West 311 358 25,400 960 Climbing Memphis Center
08:06PM 35.6661 -85.3642 262° West 317 365 26,400 960 Climbing Memphis Center
08:07PM 35.6578 -85.4692 264° West 317 365 27,400 900 Climbing Memphis Center
08:08PM 35.6453 -85.5797 262° West 317 365 28,300 900 Climbing Memphis Center
08:09PM 35.6347 -85.6853 263° West 317 365 29,300 960 Climbing Memphis Center
08:10PM 35.6261 -85.7928 264° West 317 365 30,300 1,020 Climbing Memphis Center
08:11PM 35.6158 -85.9108 264° West 317 365 31,400 900 Climbing Memphis Center
08:12PM 35.6028 -86.0139 261° West 322 371 32,200 900 Climbing Memphis Center
08:13PM 35.5922 -86.1242 258° West 328 377 33,200 960 Climbing Memphis Center
08:14PM 35.5865 -86.1313 258° West  Level FlightAware Approximate
08:14PM 35.5836 -86.2394 265° West 333 383 34,200  Level Memphis Center
08:15PM 35.5831 -86.3569 270° West 345 397 35,200 900 Climbing Memphis Center
08:16PM 35.5931 -86.4764 276° West 350 403 36,000 360 Climbing Memphis Center
08:17PM 35.6031 -86.5958 276° West 350 403 36,000  Level Memphis Center
08:18PM 35.6092 -86.7283 273° West 355 409 36,000  Level Memphis Center
08:19PM 35.5917 -86.8467 260° West 355 409 36,000  Level Memphis Center
08:20PM 35.5761 -86.9597 260° West 349 402 36,000  Level Memphis Center
08:21PM 35.5583 -87.0750 259° West 349 402 36,000  Level Memphis Center
08:22PM 35.5425 -87.1906 260° West 349 402 36,000  Level Memphis Center
08:23PM 35.5225 -87.3061 258° West 354 407 36,000  Level Memphis Center
08:24PM 35.5067 -87.4214 260° West 354 407 36,000  Level Memphis Center
08:25PM 35.4903 -87.5242 259° West 354 407 36,000  Level Memphis Center
08:26PM 35.4719 -87.6444 259° West 354 407 36,000  Level Memphis Center
08:27PM 35.4558 -87.7622 261° West 354 407 36,000  Level Memphis Center
08:28PM 35.4350 -87.8750 257° West 354 407 36,000  Level Memphis Center
08:29PM 35.4186 -87.9903 260° West 354 407 36,000  Level Memphis Center
08:30PM 35.4000 -88.1078 259° West 354 407 36,000  Level Memphis Center
08:31PM 35.3831 -88.2231 260° West 354 407 36,000  Level Memphis Center
08:32PM 35.3642 -88.3381 259° West 354 407 36,000  Level Memphis Center
08:33PM 35.3433 -88.4683 259° West 354 407 36,000  Level Memphis Center
08:34PM 35.3242 -88.5783 258° West 344 396 36,000  Level Memphis Center
08:35PM 35.3047 -88.6931 258° West 344 396 36,000  Level Memphis Center
08:36PM 35.2875 -88.8053 259° West 344 396 36,000  Level Memphis Center
08:37PM 35.2681 -88.9228 259° West 344 396 36,000  Level Memphis Center
08:38PM 35.2506 -89.0222 258° West 344 396 36,000  Level Memphis Center
08:39PM 35.2308 -89.1369 258° West 344 396 36,000  Level Memphis Center
08:40PM 35.2131 -89.2514 259° West 349 402 36,000  Level Memphis Center
08:41PM 35.1931 -89.3661 258° West 349 402 36,000  Level Memphis Center
08:42PM 35.1753 -89.4781 259° West 354 407 36,000  Level Memphis Center
08:43PM 35.1572 -89.5925 259° West 349 402 36,000  Level Memphis Center
08:44PM 35.1369 -89.7094 258° West 349 402 36,100  Climbing Memphis Center
08:45PM 35.1147 -89.8239 257° West 354 407 36,000 -60 Descending Memphis Center
08:46PM 35.0964 -89.9408 259° West 354 407 36,000  Level Memphis Center
08:47PM 35.0758 -90.0550 258° West 354 407 36,000  Level Memphis Center
08:48PM 35.0553 -90.1719 258° West 354 407 36,000  Level Memphis Center
08:49PM 35.0322 -90.2861 256° West 354 407 36,000  Level Memphis Center
08:50PM 35.0114 -90.4128 259° West 354 407 36,000  Level Memphis Center
08:51PM 34.9883 -90.5319 257° West 360 414 36,000  Level Memphis Center
08:52PM 34.9675 -90.6486 258° West 360 414 36,000  Level Memphis Center
08:53PM 34.9461 -90.7650 257° West 355 409 36,000  Level Memphis Center
08:54PM 34.9250 -90.8814 258° West 360 414 36,100  Climbing Memphis Center
08:55PM 34.9036 -91.0003 258° West 360 414 36,000 -60 Descending Memphis Center
08:56PM 34.8800 -91.1217 257° West 365 420 36,000  Level Memphis Center
08:57PM 34.8583 -91.2378 257° West 360 414 36,000  Level Memphis Center
08:58PM 34.8364 -91.3564 257° West 360 414 36,000  Level Memphis Center
08:59PM 34.8167 -91.4778 259° West 360 414 36,100  Climbing Memphis Center
09:00PM 34.7947 -91.5861 256° West 360 414 36,000 -60 Descending Memphis Center
09:01PM 34.7706 -91.7072 256° West 365 420 36,000  Level Memphis Center
09:02PM 34.7464 -91.8231 256° West 365 420 36,100  Climbing Memphis Center
09:03PM 34.7219 -91.9439 256° West 365 420 36,000 -60 Descending Memphis Center
09:04PM 34.6975 -92.0622 256° West 365 420 36,000  Level Memphis Center
09:05PM 34.6747 -92.1856 257° West 370 426 36,000  Level Memphis Center
09:06PM 34.6439 -92.3058 253° West 375 432 36,000  Level Memphis Center
09:07PM 34.6083 -92.4339 251° West 375 432 36,100  Climbing Memphis Center
09:08PM 34.5792 -92.5542 254° West 375 432 36,000 -60 Descending Memphis Center
09:09PM 34.5456 -92.6744 251° West 375 432 36,000  Level Memphis Center
09:10PM 34.5142 -92.7944 252° West 375 432 36,000  Level Memphis Center
09:11PM 34.4828 -92.9094 252° West 375 432 36,000  Level Memphis Center
09:12PM 34.4508 -93.0369 253° West 380 437 36,000  Level Memphis Center
09:13PM 34.4192 -93.1519 252° West 375 432 36,000  Level Memphis Center
09:14PM 34.3831 -93.2714 250° West 375 432 36,000  Level Memphis Center
09:15PM 34.3528 -93.3961 254° West 380 437 36,000  Level Memphis Center
09:17PM 34.3044 -93.5744 252° West 379 436 36,000  Level Fort Worth Center
09:18PM 34.2683 -93.6892 249° West 379 436 36,100  Climbing Fort Worth Center
09:19PM 34.2322 -93.8089 250° West 379 436 36,000 -420 Descending Fort Worth Center
09:20PM 34.1958 -93.9258 249° West 379 436 35,300 -900 Descending Fort Worth Center
09:21PM 34.1594 -94.0428 249° West 374 430 34,300 -1,500 Descending Fort Worth Center
09:22PM 34.1208 -94.1647 249° West 379 436 32,400 -1,920 Descending Fort Worth Center
09:23PM 34.0822 -94.2889 249° West 384 442 30,500 -1,500 Descending Fort Worth Center
09:24PM 34.0417 -94.4183 249° West 404 465 29,500 -1,020 Descending Fort Worth Center
09:25PM 34.0008 -94.5500 250° West 416 479 28,500 -1,020 Descending Fort Worth Center
09:26PM 33.9561 -94.6867 249° West 422 486 27,500 -1,020 Descending Fort Worth Center
09:27PM 33.9128 -94.8156 248° West 422 486 26,500 -1,020 Descending Fort Worth Center
09:28PM 33.8717 -94.9494 250° West 427 491 25,500 -960 Descending Fort Worth Center
09:29PM 33.8303 -95.0831 250° West 427 491 24,600 -780 Descending Fort Worth Center
09:30PM 33.7869 -95.2142 248° West 427 491 24,000 -300 Descending Fort Worth Center
09:31PM 33.7431 -95.3453 248° West 427 491 24,000  Level Fort Worth Center
09:32PM 33.7014 -95.4761 249° West 432 497 24,000  Level Fort Worth Center
09:33PM 33.6597 -95.6217 251° West 432 497 24,000  Level Fort Worth Center
09:34PM 33.6114 -95.7497 246° West 427 491 24,000  Level Fort Worth Center
09:35PM 33.5692 -95.8803 249° West 427 491 24,000  Level Fort Worth Center
09:36PM 33.5289 -96.0106 250° West 427 491 24,000 -900 Level Fort Worth Center
09:37PM 33.4864 -96.1358 248° West 420 483 22,200 -2,280 Descending Fort Worth Center
09:38PM 33.4481 -96.2483 248° West 413 475 19,500 -2,700 Descending Fort Worth Center
09:39PM 33.4053 -96.3783 249° West 391 450 16,800 -2,280 Descending Fort Worth Center
09:40PM 33.3453 -96.4636 230° Southwest 381 438 15,000 -2,160 Descending Fort Worth Center
09:41PM 33.2606 -96.5639 225° Southwest 381 438 12,500 -2,040 Descending Fort Worth Center
09:42PM 33.1922 -96.6464 225° Southwest 367 422 11,000 -780 Descending Fort Worth Center
09:43PM 33.1300 -96.7214 225° Southwest 362 417 11,000  Level Fort Worth Center
09:44PM 33.0511 -96.8111 224° Southwest 357 411 11,000  Level Fort Worth Center
09:45PM 32.9833 -96.8833 222° Southwest 247 284 11,000 -300 Level Dallas / Fort Worth TRACON
09:46PM 32.9333 -96.9000 196° South 247 284 10,400 -1,320 Descending Dallas / Fort Worth TRACON
09:47PM 32.8500 -96.9000 180° South 270 311 8,600 -1,560 Descending Dallas / Fort Worth TRACON
09:48PM 32.7833 -96.9000 180° South 253 291 7,200 -1,200 Descending Dallas / Fort Worth TRACON
09:49PM 32.7333 -96.9167 196° South 221 254 6,300 -1,200 Descending Dallas / Fort Worth TRACON
09:50PM 32.7000 -96.9833 239° Southwest 194 223 4,900 -1,320 Descending Dallas / Fort Worth TRACON
09:51PM 32.7000 -97.0500 270° West 187 215 3,600 -1,020 Descending Dallas / Fort Worth TRACON
09:52PM 32.7500 -97.0500 360° North 157 181 3,000 -720 Descending Dallas / Fort Worth TRACON